sensor_id;sensor_type;location;lat;lon;timestamp;temperature;humidity
60033;DHT22;45905;50.570;10.428;2023-12-14T00:01:18;5.30;99.90
60033;DHT22;45905;50.570;10.428;2023-12-14T00:03:45;5.40;99.90
60033;DHT22;45905;50.570;10.428;2023-12-14T00:06:14;5.40;99.90
60033;DHT22;45905;50.570;10.428;2023-12-14T00:08:41;5.40;99.90
60033;DHT22;45905;50.570;10.428;2023-12-14T00:11:11;5.30;99.90
60033;DHT22;45905;50.570;10.428;2023-12-14T00:13:38;5.40;99.90
60033;DHT22;45905;50.570;10.428;2023-12-14T00:16:07;5.90;99.90
60033;DHT22;45905;50.570;10.428;2023-12-14T00:18:36;4.60;99.90
60033;DHT22;45905;50.570;10.428;2023-12-14T00:21:04;5.30;99.90
60033;DHT22;45905;50.570;10.428;2023-12-14T00:23:33;5.30;99.90
60033;DHT22;45905;50.570;10.428;2023-12-14T00:26:01;5.30;99.90
60033;DHT22;45905;50.570;10.428;2023-12-14T00:28:29;5.30;99.90
60033;DHT22;45905;50.570;10.428;2023-12-14T00:30:59;5.30;99.90
60033;DHT22;45905;50.570;10.428;2023-12-14T00:33:28;5.10;99.90
60033;DHT22;45905;50.570;10.428;2023-12-14T00:35:55;5.30;99.90
60033;DHT22;45905;50.570;10.428;2023-12-14T00:38:23;5.30;99.90
60033;DHT22;45905;50.570;10.428;2023-12-14T00:40:50;5.30;99.90
60033;DHT22;45905;50.570;10.428;2023-12-14T00:43:17;5.30;99.90
60033;DHT22;45905;50.570;10.428;2023-12-14T00:45:45;5.30;99.90
60033;DHT22;45905;50.570;10.428;2023-12-14T00:48:12;5.20;99.90
60033;DHT22;45905;50.570;10.428;2023-12-14T00:50:40;5.20;99.90
60033;DHT22;45905;50.570;10.428;2023-12-14T00:53:08;5.30;99.90
60033;DHT22;45905;50.570;10.428;2023-12-14T00:55:35;5.30;99.90
60033;DHT22;45905;50.570;10.428;2023-12-14T00:58:02;5.50;99.90
60033;DHT22;45905;50.570;10.428;2023-12-14T01:00:30;5.30;99.90
60033;DHT22;45905;50.570;10.428;2023-12-14T01:02:58;5.40;99.90
60033;DHT22;45905;50.570;10.428;2023-12-14T01:05:25;5.30;99.90
60033;DHT22;45905;50.570;10.428;2023-12-14T01:07:52;5.40;99.90
60033;DHT22;45905;50.570;10.428;2023-12-14T01:10:20;3.50;99.90
60033;DHT22;45905;50.570;10.428;2023-12-14T01:12:47;5.20;99.90
60033;DHT22;45905;50.570;10.428;2023-12-14T01:15:15;5.40;99.90
60033;DHT22;45905;50.570;10.428;2023-12-14T01:17:43;5.40;99.90
60033;DHT22;45905;50.570;10.428;2023-12-14T01:20:10;5.40;99.90
60033;DHT22;45905;50.570;10.428;2023-12-14T01:22:38;5.40;99.90
60033;DHT22;45905;50.570;10.428;2023-12-14T01:25:06;5.30;99.90
60033;DHT22;45905;50.570;10.428;2023-12-14T01:27:33;5.40;99.90
60033;DHT22;45905;50.570;10.428;2023-12-14T01:30:00;5.30;99.90
60033;DHT22;45905;50.570;10.428;2023-12-14T01:32:28;5.40;99.90
60033;DHT22;45905;50.570;10.428;2023-12-14T01:34:55;5.40;99.90
60033;DHT22;45905;50.570;10.428;2023-12-14T01:37:22;5.20;99.90
60033;DHT22;45905;50.570;10.428;2023-12-14T01:39:50;5.30;99.90
60033;DHT22;45905;50.570;10.428;2023-12-14T01:42:17;5.40;99.90
60033;DHT22;45905;50.570;10.428;2023-12-14T01:44:44;5.40;99.90
60033;DHT22;45905;50.570;10.428;2023-12-14T01:47:12;5.10;99.90
60033;DHT22;45905;50.570;10.428;2023-12-14T01:49:39;5.50;99.90
60033;DHT22;45905;50.570;10.428;2023-12-14T01:52:08;5.60;99.90
60033;DHT22;45905;50.570;10.428;2023-12-14T01:54:35;5.30;99.90
60033;DHT22;45905;50.570;10.428;2023-12-14T01:57:03;5.70;99.90
60033;DHT22;45905;50.570;10.428;2023-12-14T01:59:30;5.50;99.90
60033;DHT22;45905;50.570;10.428;2023-12-14T02:01:58;5.40;99.90
60033;DHT22;45905;50.570;10.428;2023-12-14T02:04:26;5.50;99.90
60033;DHT22;45905;50.570;10.428;2023-12-14T02:06:54;5.50;99.90
60033;DHT22;45905;50.570;10.428;2023-12-14T02:09:21;5.60;99.90
60033;DHT22;45905;50.570;10.428;2023-12-14T02:11:49;5.40;99.90
60033;DHT22;45905;50.570;10.428;2023-12-14T02:14:17;5.40;99.90
60033;DHT22;45905;50.570;10.428;2023-12-14T02:16:45;6.10;99.90
60033;DHT22;45905;50.570;10.428;2023-12-14T02:19:12;5.40;99.90
60033;DHT22;45905;50.570;10.428;2023-12-14T02:21:39;5.40;99.90
60033;DHT22;45905;50.570;10.428;2023-12-14T02:24:06;5.40;99.90
60033;DHT22;45905;50.570;10.428;2023-12-14T02:26:34;5.40;99.90
60033;DHT22;45905;50.570;10.428;2023-12-14T02:29:01;5.40;99.90
60033;DHT22;45905;50.570;10.428;2023-12-14T02:31:28;5.60;99.90
60033;DHT22;45905;50.570;10.428;2023-12-14T02:33:56;5.50;99.90
60033;DHT22;45905;50.570;10.428;2023-12-14T02:36:23;5.50;99.90
60033;DHT22;45905;50.570;10.428;2023-12-14T02:38:51;5.50;99.90
60033;DHT22;45905;50.570;10.428;2023-12-14T02:41:18;5.50;99.90
60033;DHT22;45905;50.570;10.428;2023-12-14T02:43:46;5.50;99.90
60033;DHT22;45905;50.570;10.428;2023-12-14T02:46:14;5.50;99.90
60033;DHT22;45905;50.570;10.428;2023-12-14T02:48:42;5.70;99.90
60033;DHT22;45905;50.570;10.428;2023-12-14T02:51:14;5.60;99.90
60033;DHT22;45905;50.570;10.428;2023-12-14T02:53:42;5.50;99.90
60033;DHT22;45905;50.570;10.428;2023-12-14T02:56:10;5.40;99.90
60033;DHT22;45905;50.570;10.428;2023-12-14T02:58:40;5.50;99.90
60033;DHT22;45905;50.570;10.428;2023-12-14T03:01:08;5.40;99.90
60033;DHT22;45905;50.570;10.428;2023-12-14T03:03:38;5.40;99.90
60033;DHT22;45905;50.570;10.428;2023-12-14T03:06:07;5.60;99.90
60033;DHT22;45905;50.570;10.428;2023-12-14T03:08:34;5.50;99.90
60033;DHT22;45905;50.570;10.428;2023-12-14T03:11:02;5.50;99.90
60033;DHT22;45905;50.570;10.428;2023-12-14T03:13:29;5.50;99.90
60033;DHT22;45905;50.570;10.428;2023-12-14T03:15:56;6.40;99.90
60033;DHT22;45905;50.570;10.428;2023-12-14T03:18:24;3.90;99.90
60033;DHT22;45905;50.570;10.428;2023-12-14T03:20:51;5.30;99.90
60033;DHT22;45905;50.570;10.428;2023-12-14T03:23:19;5.40;99.90
60033;DHT22;45905;50.570;10.428;2023-12-14T03:25:46;5.60;99.90
60033;DHT22;45905;50.570;10.428;2023-12-14T03:28:13;6.70;99.90
60033;DHT22;45905;50.570;10.428;2023-12-14T03:30:41;5.30;99.90
60033;DHT22;45905;50.570;10.428;2023-12-14T03:33:08;5.30;99.90
60033;DHT22;45905;50.570;10.428;2023-12-14T03:35:36;5.50;99.90
60033;DHT22;45905;50.570;10.428;2023-12-14T03:38:04;6.30;99.90
60033;DHT22;45905;50.570;10.428;2023-12-14T03:40:32;5.50;99.90
60033;DHT22;45905;50.570;10.428;2023-12-14T03:42:59;5.50;99.90
60033;DHT22;45905;50.570;10.428;2023-12-14T03:45:27;5.40;99.90
60033;DHT22;45905;50.570;10.428;2023-12-14T03:47:54;5.10;99.90
60033;DHT22;45905;50.570;10.428;2023-12-14T03:50:22;5.40;99.90
60033;DHT22;45905;50.570;10.428;2023-12-14T03:52:49;5.40;99.90
60033;DHT22;45905;50.570;10.428;2023-12-14T03:55:17;5.40;99.90
60033;DHT22;45905;50.570;10.428;2023-12-14T03:57:44;5.40;99.90
60033;DHT22;45905;50.570;10.428;2023-12-14T04:00:13;6.00;99.90
60033;DHT22;45905;50.570;10.428;2023-12-14T04:02:40;5.40;99.90
60033;DHT22;45905;50.570;10.428;2023-12-14T04:05:09;5.40;99.90
60033;DHT22;45905;50.570;10.428;2023-12-14T04:07:38;5.20;99.90
60033;DHT22;45905;50.570;10.428;2023-12-14T04:10:11;5.50;99.90
60033;DHT22;45905;50.570;10.428;2023-12-14T04:12:40;5.50;99.90
60033;DHT22;45905;50.570;10.428;2023-12-14T04:15:09;5.50;99.90
60033;DHT22;45905;50.570;10.428;2023-12-14T04:17:37;5.50;99.90
60033;DHT22;45905;50.570;10.428;2023-12-14T04:20:06;5.70;99.90
60033;DHT22;45905;50.570;10.428;2023-12-14T04:22:34;5.50;99.90
60033;DHT22;45905;50.570;10.428;2023-12-14T04:25:02;5.60;99.90
60033;DHT22;45905;50.570;10.428;2023-12-14T04:27:30;5.60;99.90
60033;DHT22;45905;50.570;10.428;2023-12-14T04:29:57;5.60;99.90
60033;DHT22;45905;50.570;10.428;2023-12-14T04:32:24;5.50;99.90
60033;DHT22;45905;50.570;10.428;2023-12-14T04:34:52;5.50;99.90
60033;DHT22;45905;50.570;10.428;2023-12-14T04:39:47;5.50;99.90
60033;DHT22;45905;50.570;10.428;2023-12-14T04:42:15;5.40;99.90
60033;DHT22;45905;50.570;10.428;2023-12-14T04:44:42;5.60;99.90
60033;DHT22;45905;50.570;10.428;2023-12-14T04:47:10;5.20;99.90
60033;DHT22;45905;50.570;10.428;2023-12-14T04:49:37;5.50;99.90
60033;DHT22;45905;50.570;10.428;2023-12-14T04:54:33;5.40;99.90
60033;DHT22;45905;50.570;10.428;2023-12-14T04:57:03;5.40;99.90
60033;DHT22;45905;50.570;10.428;2023-12-14T04:59:30;5.40;99.90
60033;DHT22;45905;50.570;10.428;2023-12-14T05:01:57;5.30;99.90
60033;DHT22;45905;50.570;10.428;2023-12-14T05:04:25;5.40;99.90
60033;DHT22;45905;50.570;10.428;2023-12-14T05:06:52;5.60;99.90
60033;DHT22;45905;50.570;10.428;2023-12-14T05:09:21;5.50;99.90
60033;DHT22;45905;50.570;10.428;2023-12-14T05:11:48;5.40;99.90
60033;DHT22;45905;50.570;10.428;2023-12-14T05:14:16;5.40;99.90
60033;DHT22;45905;50.570;10.428;2023-12-14T05:16:43;5.50;99.90
60033;DHT22;45905;50.570;10.428;2023-12-14T05:19:11;5.50;99.90
60033;DHT22;45905;50.570;10.428;2023-12-14T05:21:42;5.50;99.90
60033;DHT22;45905;50.570;10.428;2023-12-14T05:24:09;5.40;99.90
60033;DHT22;45905;50.570;10.428;2023-12-14T05:26:36;5.50;99.90
60033;DHT22;45905;50.570;10.428;2023-12-14T05:29:04;5.40;99.90
60033;DHT22;45905;50.570;10.428;2023-12-14T05:31:31;5.30;99.90
60033;DHT22;45905;50.570;10.428;2023-12-14T05:33:59;5.40;99.90
60033;DHT22;45905;50.570;10.428;2023-12-14T05:36:26;5.30;99.90
60033;DHT22;45905;50.570;10.428;2023-12-14T05:38:54;5.40;99.90
60033;DHT22;45905;50.570;10.428;2023-12-14T05:41:22;5.40;99.90
60033;DHT22;45905;50.570;10.428;2023-12-14T05:43:49;5.40;99.90
60033;DHT22;45905;50.570;10.428;2023-12-14T05:46:23;5.20;99.90
60033;DHT22;45905;50.570;10.428;2023-12-14T05:48:51;5.30;99.90
60033;DHT22;45905;50.570;10.428;2023-12-14T05:51:29;5.30;99.90
60033;DHT22;45905;50.570;10.428;2023-12-14T05:53:58;5.20;99.90
60033;DHT22;45905;50.570;10.428;2023-12-14T05:56:25;5.40;99.90
60033;DHT22;45905;50.570;10.428;2023-12-14T05:58:53;5.50;99.90
60033;DHT22;45905;50.570;10.428;2023-12-14T06:01:20;5.40;99.90
60033;DHT22;45905;50.570;10.428;2023-12-14T06:03:50;5.60;99.90
60033;DHT22;45905;50.570;10.428;2023-12-14T06:06:18;5.50;99.90
60033;DHT22;45905;50.570;10.428;2023-12-14T06:08:46;5.50;99.90
60033;DHT22;45905;50.570;10.428;2023-12-14T06:11:13;5.50;99.90
60033;DHT22;45905;50.570;10.428;2023-12-14T06:13:41;5.50;99.90
60033;DHT22;45905;50.570;10.428;2023-12-14T06:16:08;5.60;99.90
60033;DHT22;45905;50.570;10.428;2023-12-14T06:18:40;5.20;99.90
60033;DHT22;45905;50.570;10.428;2023-12-14T06:21:13;5.50;99.90
60033;DHT22;45905;50.570;10.428;2023-12-14T06:23:41;5.30;99.90
60033;DHT22;45905;50.570;10.428;2023-12-14T06:26:08;5.20;99.90
60033;DHT22;45905;50.570;10.428;2023-12-14T06:28:36;5.50;99.90
60033;DHT22;45905;50.570;10.428;2023-12-14T06:31:03;5.50;99.90
60033;DHT22;45905;50.570;10.428;2023-12-14T06:33:31;5.70;99.90
60033;DHT22;45905;50.570;10.428;2023-12-14T06:36:02;5.20;99.90
60033;DHT22;45905;50.570;10.428;2023-12-14T06:38:31;5.30;99.90
60033;DHT22;45905;50.570;10.428;2023-12-14T06:40:59;5.50;99.90
60033;DHT22;45905;50.570;10.428;2023-12-14T06:43:29;5.60;99.90
60033;DHT22;45905;50.570;10.428;2023-12-14T06:45:56;5.30;99.90
60033;DHT22;45905;50.570;10.428;2023-12-14T06:48:23;5.70;99.90
60033;DHT22;45905;50.570;10.428;2023-12-14T06:50:51;5.70;99.90
60033;DHT22;45905;50.570;10.428;2023-12-14T06:53:21;5.60;99.90
60033;DHT22;45905;50.570;10.428;2023-12-14T06:55:49;5.50;99.90
60033;DHT22;45905;50.570;10.428;2023-12-14T06:58:17;5.60;99.90
60033;DHT22;45905;50.570;10.428;2023-12-14T07:00:44;5.60;99.90
60033;DHT22;45905;50.570;10.428;2023-12-14T07:03:12;5.60;99.90
60033;DHT22;45905;50.570;10.428;2023-12-14T07:05:42;5.40;99.90
60033;DHT22;45905;50.570;10.428;2023-12-14T07:08:09;5.50;99.90
60033;DHT22;45905;50.570;10.428;2023-12-14T07:10:36;5.50;99.90
60033;DHT22;45905;50.570;10.428;2023-12-14T07:13:04;5.50;99.90
60033;DHT22;45905;50.570;10.428;2023-12-14T07:17:59;9.20;99.90
60033;DHT22;45905;50.570;10.428;2023-12-14T07:20:27;5.40;99.90
60033;DHT22;45905;50.570;10.428;2023-12-14T07:22:55;5.30;99.90
60033;DHT22;45905;50.570;10.428;2023-12-14T07:25:22;5.10;99.90
60033;DHT22;45905;50.570;10.428;2023-12-14T07:27:50;5.40;99.90
60033;DHT22;45905;50.570;10.428;2023-12-14T07:30:18;5.50;99.90
60033;DHT22;45905;50.570;10.428;2023-12-14T07:32:45;5.50;99.90
60033;DHT22;45905;50.570;10.428;2023-12-14T07:35:13;5.40;99.90
60033;DHT22;45905;50.570;10.428;2023-12-14T07:37:40;5.50;99.90
60033;DHT22;45905;50.570;10.428;2023-12-14T07:40:08;6.40;99.90
60033;DHT22;45905;50.570;10.428;2023-12-14T07:42:36;5.30;99.90
60033;DHT22;45905;50.570;10.428;2023-12-14T07:45:04;5.50;99.90
60033;DHT22;45905;50.570;10.428;2023-12-14T07:47:32;5.50;99.90
60033;DHT22;45905;50.570;10.428;2023-12-14T07:49:59;5.70;99.90
60033;DHT22;45905;50.570;10.428;2023-12-14T07:52:26;5.60;99.90
60033;DHT22;45905;50.570;10.428;2023-12-14T07:54:54;5.40;99.90
60033;DHT22;45905;50.570;10.428;2023-12-14T07:57:21;5.60;99.90
60033;DHT22;45905;50.570;10.428;2023-12-14T07:59:48;5.50;99.90
60033;DHT22;45905;50.570;10.428;2023-12-14T08:02:16;5.50;99.90
60033;DHT22;45905;50.570;10.428;2023-12-14T08:04:43;5.60;99.90
60033;DHT22;45905;50.570;10.428;2023-12-14T08:07:11;5.50;99.90
60033;DHT22;45905;50.570;10.428;2023-12-14T08:09:38;5.40;99.90
60033;DHT22;45905;50.570;10.428;2023-12-14T08:12:06;5.60;99.90
60033;DHT22;45905;50.570;10.428;2023-12-14T08:14:34;5.70;99.90
60033;DHT22;45905;50.570;10.428;2023-12-14T08:17:01;5.60;99.90
60033;DHT22;45905;50.570;10.428;2023-12-14T08:19:29;5.60;99.90
60033;DHT22;45905;50.570;10.428;2023-12-14T08:21:56;2.50;99.90
60033;DHT22;45905;50.570;10.428;2023-12-14T08:24:23;5.80;99.90
60033;DHT22;45905;50.570;10.428;2023-12-14T08:26:51;5.70;99.90
60033;DHT22;45905;50.570;10.428;2023-12-14T08:29:18;5.80;99.90
60033;DHT22;45905;50.570;10.428;2023-12-14T08:31:46;5.80;99.90
60033;DHT22;45905;50.570;10.428;2023-12-14T08:34:13;5.80;99.90
60033;DHT22;45905;50.570;10.428;2023-12-14T08:36:41;5.70;99.90
60033;DHT22;45905;50.570;10.428;2023-12-14T08:39:09;5.70;99.90
60033;DHT22;45905;50.570;10.428;2023-12-14T08:41:36;5.60;99.90
60033;DHT22;45905;50.570;10.428;2023-12-14T08:44:03;5.70;99.90
60033;DHT22;45905;50.570;10.428;2023-12-14T08:46:39;5.80;99.90
60033;DHT22;45905;50.570;10.428;2023-12-14T08:49:11;5.70;99.90
60033;DHT22;45905;50.570;10.428;2023-12-14T08:51:40;5.90;99.90
60033;DHT22;45905;50.570;10.428;2023-12-14T08:54:08;5.70;99.90
60033;DHT22;45905;50.570;10.428;2023-12-14T08:56:36;5.70;99.90
60033;DHT22;45905;50.570;10.428;2023-12-14T08:59:03;5.90;99.90
60033;DHT22;45905;50.570;10.428;2023-12-14T09:01:31;5.70;99.90
60033;DHT22;45905;50.570;10.428;2023-12-14T09:03:58;5.80;99.90
60033;DHT22;45905;50.570;10.428;2023-12-14T09:06:26;5.80;99.90
60033;DHT22;45905;50.570;10.428;2023-12-14T09:08:53;5.80;99.90
60033;DHT22;45905;50.570;10.428;2023-12-14T09:11:20;5.80;99.90
60033;DHT22;45905;50.570;10.428;2023-12-14T09:13:48;5.70;99.90
60033;DHT22;45905;50.570;10.428;2023-12-14T09:16:15;5.80;99.90
60033;DHT22;45905;50.570;10.428;2023-12-14T09:18:43;5.80;99.90
60033;DHT22;45905;50.570;10.428;2023-12-14T09:21:10;5.70;99.90
60033;DHT22;45905;50.570;10.428;2023-12-14T09:23:37;5.80;99.90
60033;DHT22;45905;50.570;10.428;2023-12-14T09:26:05;5.70;99.90
60033;DHT22;45905;50.570;10.428;2023-12-14T09:28:32;5.80;99.90
60033;DHT22;45905;50.570;10.428;2023-12-14T09:31:00;5.80;99.90
60033;DHT22;45905;50.570;10.428;2023-12-14T09:33:29;5.80;99.90
60033;DHT22;45905;50.570;10.428;2023-12-14T09:35:57;5.80;99.90
60033;DHT22;45905;50.570;10.428;2023-12-14T09:38:24;5.80;99.90
60033;DHT22;45905;50.570;10.428;2023-12-14T09:40:52;5.80;99.90
60033;DHT22;45905;50.570;10.428;2023-12-14T09:43:20;5.70;99.90
60033;DHT22;45905;50.570;10.428;2023-12-14T09:45:49;5.80;99.90
60033;DHT22;45905;50.570;10.428;2023-12-14T09:48:17;5.80;99.90
60033;DHT22;45905;50.570;10.428;2023-12-14T09:50:46;5.60;99.90
60033;DHT22;45905;50.570;10.428;2023-12-14T09:53:13;5.80;99.90
60033;DHT22;45905;50.570;10.428;2023-12-14T09:55:41;5.80;99.90
60033;DHT22;45905;50.570;10.428;2023-12-14T09:58:09;5.70;99.90
60033;DHT22;45905;50.570;10.428;2023-12-14T10:00:39;5.80;99.90
60033;DHT22;45905;50.570;10.428;2023-12-14T10:03:21;5.80;99.90
60033;DHT22;45905;50.570;10.428;2023-12-14T10:05:55;5.80;99.90
60033;DHT22;45905;50.570;10.428;2023-12-14T10:08:25;5.60;99.90
60033;DHT22;45905;50.570;10.428;2023-12-14T10:10:55;5.70;99.90
60033;DHT22;45905;50.570;10.428;2023-12-14T10:13:43;5.70;99.90
60033;DHT22;45905;50.570;10.428;2023-12-14T10:16:11;5.70;99.90
60033;DHT22;45905;50.570;10.428;2023-12-14T10:18:38;5.60;99.90
60033;DHT22;45905;50.570;10.428;2023-12-14T10:21:07;5.70;99.90
60033;DHT22;45905;50.570;10.428;2023-12-14T10:23:34;5.80;99.90
60033;DHT22;45905;50.570;10.428;2023-12-14T10:26:03;6.00;99.90
60033;DHT22;45905;50.570;10.428;2023-12-14T10:28:32;5.70;99.90
60033;DHT22;45905;50.570;10.428;2023-12-14T10:30:59;5.40;99.90
60033;DHT22;45905;50.570;10.428;2023-12-14T10:35:56;5.60;99.90
60033;DHT22;45905;50.570;10.428;2023-12-14T10:38:25;7.30;99.90
60033;DHT22;45905;50.570;10.428;2023-12-14T10:40:57;5.60;99.90
60033;DHT22;45905;50.570;10.428;2023-12-14T10:43:26;5.70;99.90
60033;DHT22;45905;50.570;10.428;2023-12-14T10:48:26;5.60;99.90
60033;DHT22;45905;50.570;10.428;2023-12-14T10:50:59;6.20;99.90
60033;DHT22;45905;50.570;10.428;2023-12-14T10:53:29;5.50;99.90
60033;DHT22;45905;50.570;10.428;2023-12-14T10:55:57;5.50;99.90
60033;DHT22;45905;50.570;10.428;2023-12-14T10:58:48;5.50;99.90
60033;DHT22;45905;50.570;10.428;2023-12-14T11:01:20;5.40;99.90
60033;DHT22;45905;50.570;10.428;2023-12-14T11:03:55;5.30;99.90
60033;DHT22;45905;50.570;10.428;2023-12-14T11:06:37;5.20;99.90
60033;DHT22;45905;50.570;10.428;2023-12-14T11:09:07;5.60;99.90
60033;DHT22;45905;50.570;10.428;2023-12-14T11:14:11;5.40;99.90
60033;DHT22;45905;50.570;10.428;2023-12-14T11:16:48;5.30;99.90
60033;DHT22;45905;50.570;10.428;2023-12-14T11:24:22;5.10;99.90
60033;DHT22;45905;50.570;10.428;2023-12-14T11:26:50;5.30;99.90
60033;DHT22;45905;50.570;10.428;2023-12-14T11:29:19;5.20;99.90
60033;DHT22;45905;50.570;10.428;2023-12-14T11:31:47;5.20;99.90
60033;DHT22;45905;50.570;10.428;2023-12-14T11:36:44;5.60;99.90
60033;DHT22;45905;50.570;10.428;2023-12-14T11:39:13;5.20;99.90
60033;DHT22;45905;50.570;10.428;2023-12-14T11:41:41;5.20;99.90
60033;DHT22;45905;50.570;10.428;2023-12-14T11:49:04;5.20;99.90
60033;DHT22;45905;50.570;10.428;2023-12-14T11:51:33;5.20;99.90
60033;DHT22;45905;50.570;10.428;2023-12-14T11:54:01;4.80;99.90
60033;DHT22;45905;50.570;10.428;2023-12-14T11:56:29;5.30;99.90
60033;DHT22;45905;50.570;10.428;2023-12-14T11:58:58;5.50;99.90
60033;DHT22;45905;50.570;10.428;2023-12-14T12:01:26;5.30;99.90
60033;DHT22;45905;50.570;10.428;2023-12-14T12:06:27;5.20;99.90
60033;DHT22;45905;50.570;10.428;2023-12-14T12:08:55;5.20;99.90
60033;DHT22;45905;50.570;10.428;2023-12-14T12:11:24;5.00;99.90
60033;DHT22;45905;50.570;10.428;2023-12-14T12:13:56;6.10;99.90
60033;DHT22;45905;50.570;10.428;2023-12-14T12:16:24;5.40;99.90
60033;DHT22;45905;50.570;10.428;2023-12-14T12:18:52;5.20;99.90
60033;DHT22;45905;50.570;10.428;2023-12-14T12:21:20;4.80;99.90
60033;DHT22;45905;50.570;10.428;2023-12-14T12:23:47;5.20;99.90
60033;DHT22;45905;50.570;10.428;2023-12-14T12:26:15;5.30;99.90
60033;DHT22;45905;50.570;10.428;2023-12-14T12:36:07;4.80;99.90
60033;DHT22;45905;50.570;10.428;2023-12-14T12:38:34;5.10;99.90
60033;DHT22;45905;50.570;10.428;2023-12-14T12:41:04;4.80;99.90
60033;DHT22;45905;50.570;10.428;2023-12-14T12:43:31;5.00;99.90
60033;DHT22;45905;50.570;10.428;2023-12-14T12:45:58;4.90;99.90
60033;DHT22;45905;50.570;10.428;2023-12-14T12:48:26;4.90;99.90
60033;DHT22;45905;50.570;10.428;2023-12-14T12:50:54;4.80;99.90
60033;DHT22;45905;50.570;10.428;2023-12-14T12:53:21;4.80;99.90
60033;DHT22;45905;50.570;10.428;2023-12-14T12:55:49;4.50;99.90
60033;DHT22;45905;50.570;10.428;2023-12-14T12:58:17;4.80;99.90
60033;DHT22;45905;50.570;10.428;2023-12-14T13:00:45;4.60;99.90
60033;DHT22;45905;50.570;10.428;2023-12-14T13:05:40;4.80;99.90
60033;DHT22;45905;50.570;10.428;2023-12-14T13:10:35;4.70;99.90
60033;DHT22;45905;50.570;10.428;2023-12-14T13:13:04;4.80;99.90
60033;DHT22;45905;50.570;10.428;2023-12-14T13:15:33;5.00;99.90
60033;DHT22;45905;50.570;10.428;2023-12-14T13:20:30;4.40;99.90
60033;DHT22;45905;50.570;10.428;2023-12-14T13:22:58;4.50;99.90
60033;DHT22;45905;50.570;10.428;2023-12-14T13:27:54;4.60;99.90
60033;DHT22;45905;50.570;10.428;2023-12-14T13:32:49;4.80;99.90
60033;DHT22;45905;50.570;10.428;2023-12-14T13:35:17;4.70;99.90
60033;DHT22;45905;50.570;10.428;2023-12-14T13:37:44;7.10;99.90
60033;DHT22;45905;50.570;10.428;2023-12-14T13:40:13;4.50;99.90
60033;DHT22;45905;50.570;10.428;2023-12-14T13:42:42;4.60;99.90
60033;DHT22;45905;50.570;10.428;2023-12-14T13:45:26;4.70;99.90
60033;DHT22;45905;50.570;10.428;2023-12-14T13:47:56;4.40;99.90
60033;DHT22;45905;50.570;10.428;2023-12-14T13:50:25;4.60;99.90
60033;DHT22;45905;50.570;10.428;2023-12-14T13:52:56;4.50;99.90
60033;DHT22;45905;50.570;10.428;2023-12-14T14:02:48;4.50;99.90
60033;DHT22;45905;50.570;10.428;2023-12-14T14:05:16;4.50;99.90
60033;DHT22;45905;50.570;10.428;2023-12-14T14:07:44;4.70;99.90
60033;DHT22;45905;50.570;10.428;2023-12-14T14:15:08;4.70;99.90
60033;DHT22;45905;50.570;10.428;2023-12-14T14:20:04;4.50;99.90
60033;DHT22;45905;50.570;10.428;2023-12-14T14:22:33;4.40;99.90
60033;DHT22;45905;50.570;10.428;2023-12-14T14:25:01;4.40;99.90
60033;DHT22;45905;50.570;10.428;2023-12-14T14:27:29;4.40;99.90
60033;DHT22;45905;50.570;10.428;2023-12-14T14:29:57;4.40;99.90
60033;DHT22;45905;50.570;10.428;2023-12-14T14:32:24;4.50;99.90
60033;DHT22;45905;50.570;10.428;2023-12-14T14:34:52;4.60;99.90
60033;DHT22;45905;50.570;10.428;2023-12-14T14:44:45;4.40;99.90
60033;DHT22;45905;50.570;10.428;2023-12-14T14:47:12;4.20;99.90
60033;DHT22;45905;50.570;10.428;2023-12-14T14:49:40;4.60;99.90
60033;DHT22;45905;50.570;10.428;2023-12-14T14:52:08;4.60;99.90
60033;DHT22;45905;50.570;10.428;2023-12-14T14:54:35;4.30;99.90
60033;DHT22;45905;50.570;10.428;2023-12-14T14:57:03;4.20;99.90
60033;DHT22;45905;50.570;10.428;2023-12-14T15:16:54;4.00;99.90
60033;DHT22;45905;50.570;10.428;2023-12-14T15:19:23;4.00;99.90
60033;DHT22;45905;50.570;10.428;2023-12-14T15:24:19;4.20;99.90
60033;DHT22;45905;50.570;10.428;2023-12-14T15:29:16;3.50;99.90
60033;DHT22;45905;50.570;10.428;2023-12-14T15:31:43;3.80;99.90
60033;DHT22;45905;50.570;10.428;2023-12-14T15:39:06;3.60;99.90
60033;DHT22;45905;50.570;10.428;2023-12-14T15:44:02;3.50;99.90
60033;DHT22;45905;50.570;10.428;2023-12-14T16:03:49;3.70;99.90
60033;DHT22;45905;50.570;10.428;2023-12-14T16:06:16;3.40;99.90
60033;DHT22;45905;50.570;10.428;2023-12-14T16:08:45;3.70;99.90
60033;DHT22;45905;50.570;10.428;2023-12-14T16:13:41;3.50;99.90
60033;DHT22;45905;50.570;10.428;2023-12-14T16:18:36;3.70;99.90
60033;DHT22;45905;50.570;10.428;2023-12-14T16:21:04;3.60;99.90
60033;DHT22;45905;50.570;10.428;2023-12-14T16:28:27;3.80;99.90
60033;DHT22;45905;50.570;10.428;2023-12-14T16:33:23;3.40;99.90
60033;DHT22;45905;50.570;10.428;2023-12-14T16:38:21;3.50;99.90
60033;DHT22;45905;50.570;10.428;2023-12-14T16:43:16;3.40;99.90
60033;DHT22;45905;50.570;10.428;2023-12-14T16:53:23;3.50;99.90
60033;DHT22;45905;50.570;10.428;2023-12-14T16:55:55;3.50;99.90
60033;DHT22;45905;50.570;10.428;2023-12-14T17:05:54;3.30;99.90
60033;DHT22;45905;50.570;10.428;2023-12-14T17:10:49;3.40;99.90
60033;DHT22;45905;50.570;10.428;2023-12-14T17:13:17;3.00;99.90
60033;DHT22;45905;50.570;10.428;2023-12-14T17:23:07;3.30;99.90
60033;DHT22;45905;50.570;10.428;2023-12-14T17:25:35;3.60;99.90
60033;DHT22;45905;50.570;10.428;2023-12-14T17:40:27;3.20;99.90
60033;DHT22;45905;50.570;10.428;2023-12-14T17:55:14;3.30;99.90
60033;DHT22;45905;50.570;10.428;2023-12-14T18:00:10;3.20;99.90
60033;DHT22;45905;50.570;10.428;2023-12-14T18:02:38;3.30;99.90
60033;DHT22;45905;50.570;10.428;2023-12-14T18:05:06;3.40;99.90
60033;DHT22;45905;50.570;10.428;2023-12-14T18:07:34;3.60;99.90
60033;DHT22;45905;50.570;10.428;2023-12-14T18:27:19;3.20;99.90
60033;DHT22;45905;50.570;10.428;2023-12-14T18:32:14;3.70;99.90
60033;DHT22;45905;50.570;10.428;2023-12-14T18:39:41;3.90;99.90
60033;DHT22;45905;50.570;10.428;2023-12-14T18:42:10;3.30;99.90
60033;DHT22;45905;50.570;10.428;2023-12-14T18:44:39;3.30;99.90
60033;DHT22;45905;50.570;10.428;2023-12-14T18:47:08;3.30;99.90
60033;DHT22;45905;50.570;10.428;2023-12-14T18:52:04;3.30;99.90
60033;DHT22;45905;50.570;10.428;2023-12-14T18:54:31;3.30;99.90
60033;DHT22;45905;50.570;10.428;2023-12-14T19:09:18;3.70;99.90
60033;DHT22;45905;50.570;10.428;2023-12-14T19:11:46;3.60;99.90
60033;DHT22;45905;50.570;10.428;2023-12-14T19:19:11;3.40;99.90
60033;DHT22;45905;50.570;10.428;2023-12-14T19:24:07;3.50;99.90
60033;DHT22;45905;50.570;10.428;2023-12-14T19:26:35;2.80;99.90
60033;DHT22;45905;50.570;10.428;2023-12-14T19:29:03;3.50;99.90
60033;DHT22;45905;50.570;10.428;2023-12-14T19:33:59;3.30;99.90